createdAt,value
2023-05-10T00:02:13.941Z,5.63
2023-05-10T00:04:41.104Z,6.10
2023-05-10T00:07:08.402Z,6.40
2023-05-10T00:09:35.639Z,5.70
2023-05-10T00:12:02.788Z,5.80
2023-05-10T00:14:29.959Z,6.47
2023-05-10T00:16:57.238Z,8.38
2023-05-10T00:19:24.390Z,7.07
2023-05-10T00:21:51.516Z,6.53
2023-05-10T00:24:18.699Z,5.65
2023-05-10T00:26:47.923Z,6.95
2023-05-10T00:29:15.115Z,7.22
2023-05-10T00:31:42.331Z,4.93
2023-05-10T00:34:10.543Z,5.75
2023-05-10T00:36:37.869Z,5.35
2023-05-10T00:39:05.314Z,4.53
2023-05-10T00:41:33.814Z,4.88
2023-05-10T00:44:03.621Z,4.57
2023-05-10T00:46:31.961Z,4.25
2023-05-10T00:48:59.553Z,6.40
2023-05-10T00:51:27.023Z,4.78
2023-05-10T00:53:54.859Z,5.03
2023-05-10T00:56:25.552Z,8.32
2023-05-10T00:58:52.938Z,7.03
2023-05-10T01:01:21.552Z,5.55
2023-05-10T01:03:49.431Z,5.55
2023-05-10T01:06:16.691Z,6.00
2023-05-10T01:08:43.993Z,4.88
2023-05-10T01:11:11.228Z,5.88
2023-05-10T01:13:40.649Z,5.88
2023-05-10T01:16:08.437Z,6.28
2023-05-10T01:18:40.435Z,5.55
2023-05-10T01:21:29.068Z,5.75
2023-05-10T01:24:12.091Z,5.22
2023-05-10T01:27:15.882Z,5.53
2023-05-10T01:30:15.364Z,6.85
2023-05-10T01:32:43.322Z,4.75
2023-05-10T01:35:16.269Z,5.57
2023-05-10T01:38:13.131Z,4.80
2023-05-10T01:41:06.785Z,5.05
2023-05-10T01:43:46.268Z,5.65
2023-05-10T01:46:24.173Z,4.22
2023-05-10T01:48:55.176Z,3.95
2023-05-10T01:51:26.600Z,4.22
2023-05-10T01:54:02.472Z,4.38
2023-05-10T01:56:33.100Z,4.00
2023-05-10T01:59:05.458Z,4.53
2023-05-10T02:01:34.721Z,3.85
2023-05-10T02:04:04.165Z,4.18
2023-05-10T02:06:33.660Z,3.92
2023-05-10T02:09:03.197Z,3.97
2023-05-10T02:11:32.146Z,4.15
2023-05-10T02:14:01.482Z,4.95
2023-05-10T02:16:31.920Z,4.07
2023-05-10T02:19:02.696Z,4.55
2023-05-10T02:21:31.871Z,3.90
2023-05-10T02:24:00.606Z,4.20
2023-05-10T02:26:30.632Z,4.20
2023-05-10T02:28:59.611Z,3.85
2023-05-10T02:31:27.481Z,4.10
2023-05-10T02:33:55.301Z,4.32
2023-05-10T02:36:23.417Z,4.13
2023-05-10T02:38:52.968Z,4.88
2023-05-10T02:41:23.754Z,5.57
2023-05-10T02:43:53.298Z,4.68
2023-05-10T02:46:20.690Z,4.30
2023-05-10T02:48:48.066Z,4.53
2023-05-10T02:51:18.761Z,4.68
2023-05-10T02:53:48.361Z,4.35
2023-05-10T02:56:21.195Z,4.07
2023-05-10T02:58:48.689Z,4.13
2023-05-10T03:01:16.743Z,4.53
2023-05-10T03:03:43.857Z,5.05
2023-05-10T03:06:11.390Z,4.22
2023-05-10T03:08:38.710Z,6.00
2023-05-10T03:11:25.443Z,5.25
2023-05-10T03:14:03.799Z,5.68
2023-05-10T03:16:52.543Z,5.15
2023-05-10T03:19:28.675Z,5.85
2023-05-10T03:22:03.420Z,5.65
2023-05-10T03:24:36.520Z,6.22
2023-05-10T03:27:05.716Z,5.40
2023-05-10T03:29:34.197Z,7.13
2023-05-10T03:32:01.532Z,7.72
2023-05-10T03:34:32.743Z,5.90
2023-05-10T03:37:10.262Z,7.82
2023-05-10T03:39:37.740Z,6.30
2023-05-10T03:42:09.120Z,8.20
2023-05-10T03:44:36.313Z,6.38
2023-05-10T03:47:03.535Z,7.20
2023-05-10T03:49:30.853Z,6.68
2023-05-10T03:51:57.956Z,7.03
2023-05-10T03:54:25.080Z,6.68
2023-05-10T03:56:52.212Z,5.90
2023-05-10T03:59:21.173Z,6.45
2023-05-10T04:01:48.367Z,5.88
2023-05-10T04:04:15.604Z,6.00
2023-05-10T04:06:42.883Z,5.93
2023-05-10T04:09:10.322Z,5.70
2023-05-10T04:11:37.521Z,6.30
2023-05-10T04:14:04.604Z,6.18
2023-05-10T04:16:31.779Z,5.78
2023-05-10T04:18:59.039Z,4.78
2023-05-10T04:21:26.421Z,6.05
2023-05-10T04:23:53.512Z,5.63
2023-05-10T04:26:21.272Z,6.25
2023-05-10T04:28:48.508Z,4.50
2023-05-10T04:31:15.797Z,4.68
2023-05-10T04:33:42.985Z,4.72
2023-05-10T04:36:10.426Z,6.03
2023-05-10T04:38:37.628Z,4.90
2023-05-10T04:41:09.447Z,4.85
2023-05-10T04:43:38.500Z,4.78
2023-05-10T04:46:06.563Z,4.78
2023-05-10T04:48:34.162Z,4.72
2023-05-10T04:51:01.371Z,4.70
2023-05-10T04:53:28.600Z,4.32
2023-05-10T04:55:55.814Z,4.07
2023-05-10T04:58:22.993Z,4.07
2023-05-10T05:00:50.163Z,3.88
2023-05-10T05:03:17.493Z,3.85
2023-05-10T05:05:45.975Z,3.10
2023-05-10T05:08:13.852Z,2.97
2023-05-10T05:10:41.205Z,2.20
2023-05-10T05:13:08.347Z,2.33
2023-05-10T05:15:35.541Z,2.08
2023-05-10T05:18:02.796Z,2.20
2023-05-10T05:20:32.826Z,2.00
2023-05-10T05:23:00.051Z,1.90
2023-05-10T05:25:27.248Z,1.75
2023-05-10T05:27:54.422Z,1.73
2023-05-10T05:30:21.514Z,1.70
2023-05-10T05:32:48.626Z,1.80
2023-05-10T05:35:16.009Z,1.90
2023-05-10T05:37:43.499Z,1.90
2023-05-10T05:40:15.163Z,1.75
2023-05-10T05:42:42.510Z,1.70
2023-05-10T05:45:14.295Z,1.58
2023-05-10T05:47:41.936Z,1.90
2023-05-10T05:50:09.601Z,1.40
2023-05-10T05:52:37.281Z,1.50
2023-05-10T05:55:04.979Z,1.98
2023-05-10T05:57:32.282Z,2.47
2023-05-10T05:59:59.547Z,2.70
2023-05-10T06:02:26.755Z,3.30
2023-05-10T06:04:53.933Z,3.42
2023-05-10T06:07:21.381Z,3.50
2023-05-10T06:09:48.532Z,4.40
2023-05-10T06:12:15.629Z,3.65
2023-05-10T06:14:42.852Z,3.70
2023-05-10T06:17:10.199Z,4.90
2023-05-10T06:19:37.902Z,4.72
2023-05-10T06:22:05.110Z,6.15
2023-05-10T06:24:32.359Z,5.15
2023-05-10T06:27:01.254Z,4.50
2023-05-10T06:29:28.447Z,5.25
2023-05-10T06:31:55.706Z,5.38
2023-05-10T06:34:22.970Z,4.03
2023-05-10T06:36:50.054Z,3.80
2023-05-10T06:39:17.315Z,4.05
2023-05-10T06:41:44.449Z,3.20
2023-05-10T06:44:11.761Z,3.70
2023-05-10T06:46:38.865Z,4.10
2023-05-10T06:49:06.131Z,3.58
2023-05-10T06:51:33.933Z,4.43
2023-05-10T06:54:01.292Z,4.57
2023-05-10T06:56:28.375Z,4.18
2023-05-10T06:58:55.503Z,4.30
2023-05-10T07:01:23.009Z,3.85
2023-05-10T07:03:50.393Z,4.00
2023-05-10T07:06:29.228Z,3.78
2023-05-10T07:09:00.065Z,2.80
2023-05-10T07:11:27.893Z,2.88
2023-05-10T07:13:55.041Z,2.65
2023-05-10T07:16:22.790Z,2.83
2023-05-10T07:18:51.520Z,3.85
2023-05-10T07:21:18.792Z,2.45
2023-05-10T07:23:45.957Z,2.75
2023-05-10T07:26:13.173Z,2.80
2023-05-10T07:28:40.468Z,3.50
2023-05-10T07:31:07.661Z,3.40
2023-05-10T07:33:34.877Z,3.13
2023-05-10T07:36:02.032Z,3.15
2023-05-10T07:38:29.225Z,4.07
2023-05-10T07:40:56.283Z,3.40
2023-05-10T07:43:23.487Z,2.28
2023-05-10T07:45:50.550Z,3.15
2023-05-10T07:48:17.826Z,2.70
2023-05-10T07:50:44.871Z,2.28
2023-05-10T07:53:12.019Z,3.83
2023-05-10T07:55:40.752Z,2.58
2023-05-10T07:58:08.208Z,3.10
2023-05-10T08:00:35.440Z,2.67
2023-05-10T08:03:02.634Z,2.88
2023-05-10T08:05:29.823Z,2.90
2023-05-10T08:07:57.065Z,2.85
2023-05-10T08:10:25.559Z,2.58
2023-05-10T08:12:52.666Z,2.50
2023-05-10T08:15:27.337Z,3.05
2023-05-10T08:17:54.540Z,2.88
2023-05-10T08:20:22.030Z,2.80
2023-05-10T08:22:51.696Z,2.60
2023-05-10T08:25:19.494Z,2.78
2023-05-10T08:27:47.029Z,2.53
2023-05-10T08:30:14.352Z,2.80
2023-05-10T08:32:41.587Z,2.80
2023-05-10T08:35:08.981Z,2.90
2023-05-10T08:37:36.198Z,3.03
2023-05-10T08:40:04.189Z,2.90
2023-05-10T08:42:35.272Z,3.20
2023-05-10T08:45:03.686Z,2.38
2023-05-10T08:47:31.126Z,2.63
2023-05-10T08:50:00.369Z,2.75
2023-05-10T08:52:29.342Z,2.47
2023-05-10T08:54:56.504Z,2.70
2023-05-10T08:57:23.825Z,3.10
2023-05-10T08:59:50.949Z,2.80
2023-05-10T09:02:19.354Z,2.95
2023-05-10T09:04:46.568Z,3.45
2023-05-10T09:07:13.978Z,2.88
2023-05-10T09:09:41.177Z,2.80
2023-05-10T09:12:12.581Z,3.13
2023-05-10T09:14:40.626Z,2.83
2023-05-10T09:17:08.097Z,2.90
2023-05-10T09:19:35.270Z,2.80
2023-05-10T09:22:03.468Z,2.90
2023-05-10T09:24:32.031Z,2.88
2023-05-10T09:27:02.240Z,3.05
2023-05-10T09:29:43.939Z,3.15
2023-05-10T09:32:11.081Z,3.00
2023-05-10T09:34:41.120Z,4.53
2023-05-10T09:37:09.208Z,3.20
2023-05-10T09:39:37.923Z,3.30
2023-05-10T09:42:10.088Z,3.10
2023-05-10T09:44:37.792Z,2.92
2023-05-10T09:47:05.368Z,3.50
2023-05-10T09:49:32.706Z,3.28
2023-05-10T09:52:04.374Z,3.70
2023-05-10T09:54:31.948Z,2.97
2023-05-10T09:56:59.235Z,3.03
2023-05-10T09:59:28.350Z,3.28
2023-05-10T10:02:01.934Z,2.85
2023-05-10T10:04:30.152Z,3.20
2023-05-10T10:07:06.753Z,3.03
2023-05-10T10:09:35.199Z,3.00
2023-05-10T10:12:05.884Z,2.70
2023-05-10T10:14:33.293Z,2.83
2023-05-10T10:19:34.666Z,3.13
2023-05-10T10:22:02.091Z,3.00
2023-05-10T10:24:29.281Z,2.72
2023-05-10T10:27:05.372Z,3.00
2023-05-10T10:29:45.046Z,2.90
2023-05-10T10:32:54.633Z,3.00
2023-05-10T10:35:22.594Z,2.92
2023-05-10T10:37:51.939Z,2.67
2023-05-10T10:40:27.217Z,3.08
2023-05-10T10:42:56.255Z,3.08
2023-05-10T10:45:24.928Z,3.88
2023-05-10T10:48:24.618Z,3.83
2023-05-10T10:50:59.121Z,3.70
2023-05-10T10:53:29.875Z,3.63
2023-05-10T10:56:10.567Z,4.03
2023-05-10T10:58:40.094Z,4.07
2023-05-10T11:01:14.768Z,3.78
2023-05-10T11:03:42.581Z,5.68
2023-05-10T11:06:09.871Z,3.42
2023-05-10T11:08:47.194Z,5.32
2023-05-10T11:11:16.262Z,3.97
2023-05-10T11:13:51.381Z,6.18
2023-05-10T11:16:27.837Z,5.28
2023-05-10T11:19:07.961Z,4.80
2023-05-10T11:21:45.271Z,5.30
2023-05-10T11:24:18.149Z,5.53
2023-05-10T11:26:45.316Z,6.75
2023-05-10T11:29:14.863Z,4.15
2023-05-10T11:31:49.610Z,5.10
2023-05-10T11:34:31.369Z,4.90
2023-05-10T11:36:58.969Z,5.53
2023-05-10T11:39:30.798Z,6.82
2023-05-10T11:41:59.021Z,4.43
2023-05-10T11:44:34.069Z,6.00
2023-05-10T11:47:02.190Z,6.10
2023-05-10T11:49:29.496Z,5.85
2023-05-10T11:52:09.381Z,6.45
2023-05-10T11:54:36.983Z,6.68
2023-05-10T11:57:05.188Z,6.57
2023-05-10T11:59:32.369Z,7.03
2023-05-10T12:01:59.594Z,7.63
2023-05-10T12:04:30.485Z,9.75
2023-05-10T12:06:57.989Z,7.25
2023-05-10T12:09:39.516Z,8.63
2023-05-10T12:12:10.996Z,8.05
2023-05-10T12:14:38.242Z,7.75
2023-05-10T12:17:05.703Z,7.18
2023-05-10T12:19:39.933Z,8.23
2023-05-10T12:22:07.493Z,8.32
2023-05-10T12:24:39.381Z,8.48
2023-05-10T12:27:13.428Z,7.75
2023-05-10T12:29:45.608Z,6.03
2023-05-10T12:32:12.866Z,6.85
2023-05-10T12:34:40.031Z,9.25
2023-05-10T12:37:07.278Z,6.70
2023-05-10T12:39:42.258Z,7.40
2023-05-10T12:42:10.102Z,7.35
2023-05-10T12:44:37.385Z,5.95
2023-05-10T12:47:04.584Z,6.82
2023-05-10T12:49:31.886Z,6.20
2023-05-10T12:51:59.031Z,6.90
2023-05-10T12:54:26.270Z,5.63
2023-05-10T12:56:53.484Z,6.03
2023-05-10T12:59:20.668Z,6.32
2023-05-10T13:01:47.770Z,4.78
2023-05-10T13:04:14.905Z,4.95
2023-05-10T13:06:42.030Z,4.78
2023-05-10T13:09:09.189Z,4.60
2023-05-10T13:11:36.353Z,4.20
2023-05-10T13:14:04.446Z,4.38
2023-05-10T13:16:32.731Z,4.60
2023-05-10T13:19:00.363Z,4.32
2023-05-10T13:21:27.731Z,5.03
2023-05-10T13:23:55.030Z,4.75
2023-05-10T13:26:22.562Z,4.68
2023-05-10T13:28:50.755Z,5.03
2023-05-10T13:31:17.839Z,4.63
2023-05-10T13:33:44.943Z,5.57
2023-05-10T13:36:12.004Z,4.45
2023-05-10T13:38:39.184Z,4.80
2023-05-10T13:41:06.392Z,5.35
2023-05-10T13:43:33.552Z,5.22
2023-05-10T13:46:00.706Z,6.25
2023-05-10T13:48:28.895Z,4.97
2023-05-10T13:50:56.064Z,6.00
2023-05-10T13:53:23.173Z,5.45
2023-05-10T13:55:50.451Z,7.10
2023-05-10T13:58:17.594Z,9.60
2023-05-10T14:00:44.682Z,12.48
2023-05-10T14:03:12.666Z,12.02
2023-05-10T14:05:40.014Z,11.93
2023-05-10T14:08:07.378Z,12.63
2023-05-10T14:10:34.461Z,10.88
2023-05-10T14:13:02.274Z,12.07
2023-05-10T14:15:29.403Z,10.45
2023-05-10T14:17:56.532Z,11.18
2023-05-10T14:20:23.665Z,11.05
2023-05-10T14:22:50.899Z,11.45
2023-05-10T14:25:19.006Z,9.68
2023-05-10T14:27:46.331Z,11.27
2023-05-10T14:30:13.877Z,10.52
2023-05-10T14:32:41.097Z,8.30
2023-05-10T14:35:10.038Z,7.47
2023-05-10T14:37:39.209Z,7.55
2023-05-10T14:40:07.674Z,6.80
2023-05-10T14:42:34.759Z,5.65
2023-05-10T14:45:01.939Z,5.18
2023-05-10T14:47:29.255Z,5.93
2023-05-10T14:49:56.389Z,5.75
2023-05-10T14:52:24.822Z,6.05
2023-05-10T14:54:51.920Z,5.28
2023-05-10T14:57:19.155Z,4.38
2023-05-10T14:59:46.390Z,4.60
2023-05-10T15:02:14.612Z,4.85
2023-05-10T15:04:42.198Z,4.95
2023-05-10T15:07:09.886Z,4.90
2023-05-10T15:09:37.078Z,4.82
2023-05-10T15:12:04.248Z,4.97
2023-05-10T15:14:33.945Z,5.22
2023-05-10T15:17:01.390Z,4.47
2023-05-10T15:19:29.835Z,4.28
2023-05-10T15:21:56.994Z,4.60
2023-05-10T15:24:24.115Z,4.28
2023-05-10T15:26:51.223Z,4.75
2023-05-10T15:29:20.966Z,4.93
2023-05-10T15:31:49.268Z,4.50
2023-05-10T15:34:17.333Z,4.38
2023-05-10T15:36:44.607Z,4.35
2023-05-10T15:39:12.969Z,3.92
2023-05-10T15:41:40.096Z,4.32
2023-05-10T15:44:07.289Z,4.18
2023-05-10T15:46:34.774Z,5.90
2023-05-10T15:49:01.957Z,4.55
2023-05-10T15:51:29.057Z,4.10
2023-05-10T15:54:06.305Z,3.85
2023-05-10T15:56:35.348Z,4.65
2023-05-10T15:59:03.980Z,6.38
2023-05-10T16:01:32.703Z,3.63
2023-05-10T16:04:00.244Z,3.38
2023-05-10T16:06:27.414Z,3.63
2023-05-10T16:08:54.802Z,3.95
2023-05-10T16:11:22.085Z,4.18
2023-05-10T16:13:49.242Z,3.72
2023-05-10T16:16:16.536Z,3.90
2023-05-10T16:18:44.025Z,3.63
2023-05-10T16:21:11.322Z,4.47
2023-05-10T16:23:38.572Z,3.25
2023-05-10T16:26:05.706Z,3.58
2023-05-10T16:28:32.839Z,3.20
2023-05-10T16:31:00.040Z,4.20
2023-05-10T16:33:27.378Z,4.57
2023-05-10T16:35:54.577Z,3.88
2023-05-10T16:38:22.227Z,4.15
2023-05-10T16:40:49.470Z,4.93
2023-05-10T16:43:16.652Z,5.20
2023-05-10T16:45:44.017Z,4.50
2023-05-10T16:48:11.274Z,5.28
2023-05-10T16:50:38.532Z,5.15
2023-05-10T16:53:10.291Z,4.05
2023-05-10T16:55:38.067Z,5.03
2023-05-10T16:58:05.322Z,4.40
2023-05-10T17:00:32.729Z,6.05
2023-05-10T17:03:07.427Z,3.38
2023-05-10T17:05:34.609Z,2.78
2023-05-10T17:08:01.834Z,4.03
2023-05-10T17:10:29.035Z,4.10
2023-05-10T17:12:56.288Z,3.25
2023-05-10T17:15:23.601Z,4.15
2023-05-10T17:17:52.410Z,3.40
2023-05-10T17:20:19.684Z,3.38
2023-05-10T17:22:46.810Z,4.70
2023-05-10T17:25:14.164Z,3.83
2023-05-10T17:27:41.620Z,3.97
2023-05-10T17:30:09.294Z,5.35
2023-05-10T17:32:37.407Z,3.38
2023-05-10T17:35:05.524Z,4.47
2023-05-10T17:37:33.185Z,3.40
2023-05-10T17:40:01.135Z,4.43
2023-05-10T17:42:28.265Z,4.45
2023-05-10T17:44:55.844Z,6.50
2023-05-10T17:47:23.010Z,4.45
2023-05-10T17:49:50.214Z,5.30
2023-05-10T17:52:17.388Z,5.72
2023-05-10T17:54:44.449Z,6.05
2023-05-10T17:57:11.849Z,6.20
2023-05-10T17:59:39.207Z,8.05
2023-05-10T18:02:08.321Z,6.95
2023-05-10T18:04:35.628Z,5.20
2023-05-10T18:07:03.061Z,3.90
2023-05-10T18:09:30.346Z,4.55
2023-05-10T18:11:57.524Z,4.05
2023-05-10T18:14:38.997Z,4.53
2023-05-10T18:17:08.403Z,3.75
2023-05-10T18:19:35.611Z,3.17
2023-05-10T18:22:02.932Z,3.58
2023-05-10T18:24:38.994Z,5.18
2023-05-10T18:27:10.659Z,5.35
2023-05-10T18:29:37.885Z,6.55
2023-05-10T18:32:05.456Z,4.63
2023-05-10T18:34:32.655Z,6.35
2023-05-10T18:37:00.154Z,6.85
2023-05-10T18:39:27.524Z,5.45
2023-05-10T18:41:54.724Z,3.50
2023-05-10T18:44:23.372Z,5.55
2023-05-10T18:46:54.084Z,3.83
2023-05-10T18:49:21.626Z,4.20
2023-05-10T18:51:48.820Z,4.43
2023-05-10T18:54:16.052Z,6.78
2023-05-10T18:56:45.395Z,3.05
2023-05-10T18:59:14.286Z,4.25
2023-05-10T19:01:41.945Z,4.40
2023-05-10T19:04:10.374Z,3.90
2023-05-10T19:06:37.630Z,4.15
2023-05-10T19:09:04.910Z,3.33
2023-05-10T19:11:34.159Z,3.22
2023-05-10T19:14:01.966Z,4.25
2023-05-10T19:16:30.547Z,2.88
2023-05-10T19:18:58.154Z,2.47
2023-05-10T19:21:25.244Z,1.73
2023-05-10T19:23:54.078Z,2.45
2023-05-10T19:26:22.442Z,1.65
2023-05-10T19:28:52.941Z,2.80
2023-05-10T19:31:21.264Z,2.03
2023-05-10T19:33:48.490Z,1.20
2023-05-10T19:36:16.733Z,1.70
2023-05-10T19:38:43.934Z,1.75
2023-05-10T19:41:11.826Z,1.30
2023-05-10T19:43:39.892Z,1.77
2023-05-10T19:46:09.091Z,1.80
2023-05-10T19:48:36.407Z,1.45
2023-05-10T19:51:07.666Z,1.23
2023-05-10T19:53:35.696Z,1.48
2023-05-10T19:56:05.142Z,1.38
2023-05-10T19:58:33.512Z,1.30
2023-05-10T20:01:00.793Z,1.38
2023-05-10T20:03:28.744Z,0.73
2023-05-10T20:05:56.073Z,1.73
2023-05-10T20:08:23.351Z,0.88
2023-05-10T20:10:50.846Z,0.75
2023-05-10T20:13:18.145Z,1.27
2023-05-10T20:15:46.504Z,1.05
2023-05-10T20:18:13.889Z,1.17
2023-05-10T20:20:41.158Z,0.80
2023-05-10T20:23:08.289Z,1.48
2023-05-10T20:25:35.845Z,2.28
2023-05-10T20:28:03.822Z,3.35
2023-05-10T20:30:30.986Z,4.05
2023-05-10T20:32:58.180Z,3.25
2023-05-10T20:35:25.389Z,2.67
2023-05-10T20:37:52.611Z,2.13
2023-05-10T20:40:19.845Z,1.35
2023-05-10T20:42:47.766Z,1.73
2023-05-10T20:45:15.516Z,2.78
2023-05-10T20:47:42.763Z,1.50
2023-05-10T20:50:10.184Z,5.10
2023-05-10T20:52:37.369Z,5.50
2023-05-10T20:55:04.755Z,2.50
2023-05-10T20:57:31.864Z,3.83
2023-05-10T20:59:58.994Z,1.67
2023-05-10T21:02:26.279Z,4.40
2023-05-10T21:04:54.463Z,1.48
2023-05-10T21:07:23.706Z,3.47
2023-05-10T21:09:51.012Z,2.17
2023-05-10T21:12:18.226Z,4.35
2023-05-10T21:14:47.858Z,1.02
2023-05-10T21:17:15.032Z,2.00
2023-05-10T21:19:42.202Z,1.38
2023-05-10T21:22:09.495Z,8.27
2023-05-10T21:24:36.572Z,0.82
2023-05-10T21:27:04.835Z,3.45
2023-05-10T21:29:31.954Z,2.20
2023-05-10T21:31:59.111Z,1.58
2023-05-10T21:34:26.956Z,1.02
2023-05-10T21:36:54.711Z,0.93
2023-05-10T21:39:21.775Z,0.93
2023-05-10T21:41:48.859Z,0.85
2023-05-10T21:44:16.131Z,2.58
2023-05-10T21:46:43.338Z,3.22
2023-05-10T21:49:10.715Z,1.50
2023-05-10T21:51:37.952Z,1.98
2023-05-10T21:54:12.578Z,1.20
2023-05-10T21:56:40.345Z,1.63
2023-05-10T21:59:07.554Z,4.20
2023-05-10T22:01:34.766Z,1.48
2023-05-10T22:04:01.975Z,1.15
2023-05-10T22:06:29.070Z,1.17
2023-05-10T22:08:56.324Z,3.22
2023-05-10T22:11:23.451Z,1.75
2023-05-10T22:13:50.609Z,3.95
2023-05-10T22:16:17.814Z,2.22
2023-05-10T22:18:45.203Z,1.42
2023-05-10T22:21:12.419Z,1.02
2023-05-10T22:23:39.588Z,2.17
2023-05-10T22:26:06.832Z,2.10
2023-05-10T22:28:34.068Z,3.95
2023-05-10T22:31:01.455Z,2.40
2023-05-10T22:33:28.807Z,1.85
2023-05-10T22:35:56.102Z,1.85
2023-05-10T22:38:23.267Z,2.10
2023-05-10T22:40:50.478Z,1.98
2023-05-10T22:43:18.324Z,2.95
2023-05-10T22:45:45.864Z,1.20
2023-05-10T22:48:15.468Z,1.65
2023-05-10T22:50:42.903Z,2.15
2023-05-10T22:53:10.843Z,1.77
2023-05-10T22:55:37.996Z,1.02
2023-05-10T22:58:06.158Z,1.27
2023-05-10T23:00:33.934Z,1.98
2023-05-10T23:03:01.169Z,1.83
2023-05-10T23:05:28.360Z,2.17
2023-05-10T23:07:55.535Z,2.00
2023-05-10T23:10:23.001Z,2.22
2023-05-10T23:12:50.130Z,2.30
2023-05-10T23:15:17.251Z,1.38
2023-05-10T23:17:44.450Z,3.63
2023-05-10T23:20:12.473Z,3.30
2023-05-10T23:22:40.205Z,1.75
2023-05-10T23:25:08.101Z,2.05
2023-05-10T23:27:35.362Z,1.38
2023-05-10T23:30:02.560Z,2.03
2023-05-10T23:32:29.698Z,2.67
2023-05-10T23:34:56.857Z,1.77
2023-05-10T23:37:25.725Z,1.92
2023-05-10T23:39:53.786Z,1.10
2023-05-10T23:42:21.050Z,1.55
2023-05-10T23:44:48.206Z,2.58
2023-05-10T23:47:15.392Z,1.75
2023-05-10T23:49:42.543Z,3.05
2023-05-10T23:52:09.734Z,2.22
2023-05-10T23:54:36.987Z,1.98
2023-05-10T23:57:04.312Z,1.42
2023-05-10T23:59:31.394Z,1.50
